createdAt,value
2019-03-28T00:00:04.905Z,13.00
2019-03-28T00:02:33.351Z,12.67
2019-03-28T00:05:01.804Z,13.00
2019-03-28T00:07:30.276Z,13.17
2019-03-28T00:09:58.734Z,12.83
2019-03-28T00:12:27.262Z,12.97
2019-03-28T00:14:55.704Z,13.60
2019-03-28T00:17:24.169Z,12.70
2019-03-28T00:19:52.626Z,13.60
2019-03-28T00:22:31.495Z,12.77
2019-03-28T00:25:07.308Z,13.00
2019-03-28T00:27:36.824Z,13.20
2019-03-28T00:30:07.472Z,12.97
2019-03-28T00:32:35.940Z,13.43
2019-03-28T00:35:06.012Z,13.33
2019-03-28T00:37:35.219Z,14.80
2019-03-28T00:40:05.263Z,13.10
2019-03-28T00:42:33.803Z,14.07
2019-03-28T00:45:02.263Z,15.40
2019-03-28T00:47:30.708Z,14.00
2019-03-28T00:49:59.167Z,14.73
2019-03-28T00:52:37.698Z,16.43
2019-03-28T00:55:07.290Z,14.27
2019-03-28T00:57:35.728Z,14.63
2019-03-28T01:00:07.463Z,14.70
2019-03-28T01:02:36.116Z,15.20
2019-03-28T01:05:06.451Z,12.27
2019-03-28T01:07:40.875Z,13.73
2019-03-28T01:10:09.774Z,14.10
2019-03-28T01:12:38.287Z,14.17
2019-03-28T01:15:26.141Z,14.07
2019-03-28T01:17:55.134Z,13.03
2019-03-28T01:20:23.783Z,15.80
2019-03-28T01:22:52.230Z,13.63
2019-03-28T01:25:20.689Z,13.30
2019-03-28T01:27:49.131Z,15.37
2019-03-28T01:30:17.576Z,14.60
2019-03-28T01:32:47.181Z,15.20
2019-03-28T01:35:16.596Z,14.73
2019-03-28T01:37:45.052Z,16.67
2019-03-28T01:40:13.588Z,15.40
2019-03-28T01:42:42.040Z,14.70
2019-03-28T01:45:10.725Z,15.57
2019-03-28T01:47:39.302Z,15.80
2019-03-28T01:50:27.200Z,15.90
2019-03-28T01:52:55.656Z,15.10
2019-03-28T01:55:24.120Z,15.43
2019-03-28T01:57:52.641Z,15.10
2019-03-28T02:00:21.081Z,16.97
2019-03-28T02:02:49.520Z,14.50
2019-03-28T02:05:18.242Z,15.17
2019-03-28T02:07:46.895Z,15.30
2019-03-28T02:10:15.584Z,14.77
2019-03-28T02:12:44.029Z,14.53
2019-03-28T02:15:12.836Z,15.73
2019-03-28T02:17:41.344Z,15.97
2019-03-28T02:20:10.595Z,15.77
2019-03-28T02:22:39.067Z,15.97
2019-03-28T02:25:08.460Z,17.03
2019-03-28T02:27:36.896Z,15.20
2019-03-28T02:30:09.503Z,15.30
2019-03-28T02:32:37.978Z,15.40
2019-03-28T02:35:06.676Z,14.87
2019-03-28T02:37:35.112Z,16.10
2019-03-28T02:40:05.092Z,14.73
2019-03-28T02:42:33.544Z,16.03
2019-03-28T02:45:01.988Z,15.60
2019-03-28T02:47:30.512Z,17.10
2019-03-28T02:49:59.025Z,14.87
2019-03-28T02:52:27.502Z,16.07
2019-03-28T02:54:56.002Z,17.07
2019-03-28T02:57:39.617Z,15.10
2019-03-28T02:59:54.968Z,16.77
2019-03-28T03:02:23.516Z,15.77
2019-03-28T03:04:52.121Z,15.83
2019-03-28T03:07:20.800Z,16.23
2019-03-28T03:09:49.461Z,15.97
2019-03-28T03:12:17.919Z,15.30
2019-03-28T03:14:46.364Z,14.80
2019-03-28T03:17:15.781Z,17.63
2019-03-28T03:19:44.443Z,17.23
2019-03-28T03:22:12.954Z,17.17
2019-03-28T03:25:00.748Z,17.00
2019-03-28T03:27:29.200Z,16.37
2019-03-28T03:29:57.660Z,16.60
2019-03-28T03:32:26.108Z,15.67
2019-03-28T03:34:54.564Z,16.10
2019-03-28T03:37:23.011Z,15.83
2019-03-28T03:39:51.461Z,17.37
2019-03-28T03:42:20.889Z,17.07
2019-03-28T03:44:49.421Z,17.10
2019-03-28T03:47:17.866Z,17.60
2019-03-28T03:49:46.399Z,17.10
2019-03-28T03:52:34.253Z,17.47
2019-03-28T03:55:02.727Z,16.00
2019-03-28T03:57:31.248Z,16.87
2019-03-28T03:59:59.725Z,17.40
2019-03-28T04:02:28.172Z,17.67
2019-03-28T04:04:57.031Z,16.63
2019-03-28T04:07:25.598Z,16.60
2019-03-28T04:09:54.064Z,17.50
2019-03-28T04:12:22.503Z,18.53
2019-03-28T04:14:50.968Z,16.70
2019-03-28T04:17:19.502Z,17.67
2019-03-28T04:19:47.996Z,17.23
2019-03-28T04:22:16.446Z,17.30
2019-03-28T04:24:44.886Z,18.13
2019-03-28T04:27:13.344Z,18.20
2019-03-28T04:29:41.797Z,18.07
2019-03-28T04:32:10.332Z,18.03
2019-03-28T04:34:38.773Z,19.13
2019-03-28T04:37:07.233Z,18.93
2019-03-28T04:39:35.671Z,20.60
2019-03-28T04:42:04.191Z,19.93
2019-03-28T04:44:32.646Z,19.80
2019-03-28T04:47:01.128Z,20.00
2019-03-28T04:49:29.568Z,20.37
2019-03-28T04:51:58.032Z,20.67
2019-03-28T04:54:26.471Z,19.83
2019-03-28T04:56:54.938Z,20.77
2019-03-28T04:59:23.386Z,20.10
2019-03-28T05:02:02.505Z,21.73
2019-03-28T05:04:22.248Z,21.30
2019-03-28T05:06:50.926Z,20.00
2019-03-28T05:09:19.667Z,21.37
2019-03-28T05:11:48.217Z,19.97
2019-03-28T05:14:16.756Z,20.40
2019-03-28T05:16:45.344Z,21.20
2019-03-28T05:19:14.021Z,21.07
2019-03-28T05:21:42.553Z,22.00
2019-03-28T05:24:11.421Z,21.63
2019-03-28T05:26:39.992Z,20.97
2019-03-28T05:29:08.477Z,21.40
2019-03-28T05:31:37.063Z,21.23
2019-03-28T05:34:05.639Z,23.13
2019-03-28T05:36:34.188Z,23.57
2019-03-28T05:39:02.644Z,22.67
2019-03-28T05:41:31.087Z,24.17
2019-03-28T05:43:59.544Z,22.93
2019-03-28T05:46:28.014Z,23.50
2019-03-28T05:48:56.463Z,24.30
2019-03-28T05:51:24.891Z,24.60
2019-03-28T05:53:53.355Z,23.63
2019-03-28T05:56:21.936Z,23.23
2019-03-28T05:58:50.457Z,25.23
2019-03-28T06:01:18.898Z,22.40
2019-03-28T06:03:47.352Z,23.27
2019-03-28T06:06:15.808Z,23.60
2019-03-28T06:08:44.255Z,23.47
2019-03-28T06:11:12.698Z,23.77
2019-03-28T06:13:41.156Z,22.77
2019-03-28T06:16:09.598Z,23.57
2019-03-28T06:18:38.045Z,24.40
2019-03-28T06:21:06.490Z,22.97
2019-03-28T06:23:34.947Z,24.70
2019-03-28T06:26:03.452Z,24.30
2019-03-28T06:28:31.931Z,24.93
2019-03-28T06:31:00.420Z,24.43
2019-03-28T06:33:28.871Z,24.97
2019-03-28T06:35:57.451Z,24.23
2019-03-28T06:38:45.244Z,24.83
2019-03-28T06:41:13.691Z,25.10
2019-03-28T06:43:42.291Z,25.03
2019-03-28T06:46:10.758Z,24.70
2019-03-28T06:48:39.199Z,25.70
2019-03-28T06:51:07.651Z,24.83
2019-03-28T06:53:36.102Z,26.60
2019-03-28T06:56:04.851Z,25.37
2019-03-28T06:58:33.374Z,25.63
2019-03-28T07:01:01.819Z,24.90
2019-03-28T07:03:30.271Z,25.00
2019-03-28T07:05:58.750Z,25.03
2019-03-28T07:08:27.186Z,25.17
2019-03-28T07:10:58.001Z,27.17
2019-03-28T07:13:25.796Z,27.00
2019-03-28T07:15:54.264Z,25.90
2019-03-28T07:18:22.727Z,25.43
2019-03-28T07:20:53.294Z,23.63
2019-03-28T07:23:21.727Z,25.47
2019-03-28T07:25:50.192Z,24.40
2019-03-28T07:28:18.637Z,24.13
2019-03-28T07:30:47.088Z,23.93
2019-03-28T07:33:15.525Z,24.73
2019-03-28T07:35:43.972Z,26.73
2019-03-28T07:38:12.498Z,27.07
2019-03-28T07:40:40.935Z,23.23
2019-03-28T07:43:09.409Z,26.03
2019-03-28T07:45:38.015Z,24.70
2019-03-28T07:48:06.489Z,24.97
2019-03-28T07:50:34.937Z,25.07
2019-03-28T07:53:03.416Z,24.00
2019-03-28T07:55:31.907Z,24.97
2019-03-28T07:58:01.127Z,24.90
2019-03-28T08:00:29.595Z,24.97
2019-03-28T08:02:58.551Z,24.57
2019-03-28T08:05:27.271Z,24.33
2019-03-28T08:07:55.741Z,24.63
2019-03-28T08:10:24.319Z,23.10
2019-03-28T08:12:52.799Z,24.57
2019-03-28T08:15:21.256Z,25.40
2019-03-28T08:17:49.835Z,24.53
2019-03-28T08:20:18.462Z,25.50
2019-03-28T08:22:46.946Z,24.93
2019-03-28T08:25:16.028Z,25.17
2019-03-28T08:27:44.680Z,28.30
2019-03-28T08:30:18.907Z,24.20
2019-03-28T08:32:44.938Z,24.27
2019-03-28T08:35:13.640Z,25.20
2019-03-28T08:37:42.939Z,23.90
2019-03-28T08:40:13.132Z,23.90
2019-03-28T08:42:41.579Z,25.67
2019-03-28T08:45:10.589Z,24.07
2019-03-28T08:47:39.068Z,26.90
2019-03-28T08:50:07.963Z,25.33
2019-03-28T08:52:36.476Z,27.27
2019-03-28T08:55:10.079Z,26.60
2019-03-28T08:57:38.832Z,26.10
2019-03-28T09:00:09.705Z,29.00
2019-03-28T09:02:38.220Z,26.87
2019-03-28T09:05:26.028Z,25.70
2019-03-28T09:07:54.539Z,28.50
2019-03-28T09:10:23.000Z,26.17
2019-03-28T09:12:51.521Z,26.67
2019-03-28T09:15:20.108Z,26.97
2019-03-28T09:17:48.559Z,26.43
2019-03-28T09:20:17.364Z,28.97
2019-03-28T09:22:46.661Z,28.43
2019-03-28T09:25:15.152Z,28.43
2019-03-28T09:27:43.710Z,26.80
2019-03-28T09:30:12.855Z,29.17
2019-03-28T09:32:41.374Z,27.83
2019-03-28T09:35:11.300Z,31.17
2019-03-28T09:37:39.819Z,26.77
2019-03-28T09:40:08.655Z,30.70
2019-03-28T09:42:56.573Z,28.43
2019-03-28T09:45:25.095Z,29.90
2019-03-28T09:47:53.556Z,30.50
2019-03-28T09:50:27.880Z,29.00
2019-03-28T09:53:15.673Z,29.63
2019-03-28T09:55:44.131Z,29.50
2019-03-28T09:58:12.661Z,31.50
2019-03-28T10:00:41.315Z,30.70
2019-03-28T10:03:09.815Z,31.67
2019-03-28T10:05:38.506Z,30.63
2019-03-28T10:08:07.193Z,33.23
2019-03-28T10:10:35.632Z,32.77
2019-03-28T10:13:04.159Z,30.80
2019-03-28T10:15:32.678Z,31.27
2019-03-28T10:18:01.208Z,31.73
2019-03-28T10:20:29.652Z,32.43
2019-03-28T10:22:58.118Z,30.50
2019-03-28T10:25:26.984Z,32.13
2019-03-28T10:27:55.488Z,31.63
2019-03-28T10:30:38.171Z,30.83
2019-03-28T10:33:07.268Z,29.47
2019-03-28T10:35:35.707Z,31.50
2019-03-28T10:38:05.001Z,29.40
2019-03-28T10:40:33.443Z,29.77
2019-03-28T10:43:09.655Z,29.77
2019-03-28T10:45:38.157Z,32.00
2019-03-28T10:48:23.555Z,25.77
2019-03-28T10:50:52.423Z,26.00
2019-03-28T10:53:20.940Z,26.50
2019-03-28T10:55:49.386Z,26.23
2019-03-28T10:58:19.395Z,26.97
2019-03-28T11:00:48.047Z,24.50
2019-03-28T11:03:16.579Z,24.17
2019-03-28T11:05:45.564Z,24.33
2019-03-28T11:08:14.113Z,22.90
2019-03-28T11:10:42.687Z,24.73
2019-03-28T11:13:11.217Z,25.70
2019-03-28T11:15:39.751Z,26.50
2019-03-28T11:18:08.259Z,25.60
2019-03-28T11:20:39.809Z,23.80
2019-03-28T11:23:07.341Z,24.33
2019-03-28T11:25:36.097Z,21.90
2019-03-28T11:28:05.536Z,19.43
2019-03-28T11:30:34.006Z,18.70
2019-03-28T11:33:02.524Z,15.97
2019-03-28T11:35:30.985Z,17.60
2019-03-28T11:37:59.431Z,13.80
2019-03-28T11:40:28.007Z,16.30
2019-03-28T11:42:56.480Z,18.00
2019-03-28T11:45:27.102Z,17.27
2019-03-28T11:47:55.200Z,20.17
2019-03-28T11:50:23.688Z,11.00
2019-03-28T11:52:52.140Z,11.10
2019-03-28T11:55:24.621Z,14.07
2019-03-28T11:57:56.311Z,15.57
2019-03-28T12:00:23.483Z,19.10
2019-03-28T12:02:51.943Z,18.73
2019-03-28T12:05:20.488Z,22.17
2019-03-28T12:07:48.960Z,20.60
2019-03-28T12:10:18.343Z,20.10
2019-03-28T12:12:46.809Z,21.37
2019-03-28T12:15:15.591Z,20.00
2019-03-28T12:17:44.048Z,20.20
2019-03-28T12:20:12.930Z,20.63
2019-03-28T12:22:41.406Z,20.83
2019-03-28T12:25:10.312Z,21.33
2019-03-28T12:27:38.869Z,20.10
2019-03-28T12:30:10.422Z,17.73
2019-03-28T12:32:38.890Z,18.10
2019-03-28T12:35:08.260Z,20.53
2019-03-28T12:37:36.976Z,20.70
2019-03-28T12:40:08.381Z,20.23
2019-03-28T12:42:37.080Z,19.13
2019-03-28T12:45:10.968Z,19.20
2019-03-28T12:47:42.767Z,19.30
2019-03-28T12:50:13.201Z,21.33
2019-03-28T12:52:41.649Z,22.37
2019-03-28T12:55:14.528Z,21.60
2019-03-28T12:57:42.988Z,22.20
2019-03-28T13:00:12.957Z,22.80
2019-03-28T13:02:41.473Z,22.90
2019-03-28T13:05:10.285Z,22.00
2019-03-28T13:07:38.891Z,21.60
2019-03-28T13:10:10.021Z,22.60
2019-03-28T13:12:38.519Z,21.43
2019-03-28T13:15:08.020Z,21.23
2019-03-28T13:17:55.816Z,21.90
2019-03-28T13:20:24.329Z,19.70
2019-03-28T13:22:52.795Z,20.77
2019-03-28T13:25:21.232Z,21.20
2019-03-28T13:27:49.701Z,23.43
2019-03-28T13:30:18.489Z,21.13
2019-03-28T13:32:47.940Z,18.17
2019-03-28T13:35:16.547Z,21.50
2019-03-28T13:37:45.007Z,19.83
2019-03-28T13:40:32.876Z,21.40
2019-03-28T13:43:01.326Z,20.70
2019-03-28T13:45:29.924Z,22.50
2019-03-28T13:47:58.366Z,20.13
2019-03-28T13:50:26.887Z,19.90
2019-03-28T13:52:55.336Z,20.77
2019-03-28T13:55:29.869Z,20.67
2019-03-28T13:57:58.311Z,20.93
2019-03-28T14:00:31.237Z,19.80
2019-03-28T14:02:59.695Z,21.73
2019-03-28T14:05:28.189Z,21.83
2019-03-28T14:07:56.676Z,22.77
2019-03-28T14:10:25.460Z,21.87
2019-03-28T14:13:13.332Z,23.00
2019-03-28T14:18:25.584Z,25.00
2019-03-28T14:20:55.015Z,24.03
2019-03-28T14:23:23.537Z,23.00
2019-03-28T14:25:52.057Z,22.57
2019-03-28T14:28:20.523Z,25.50
2019-03-28T14:30:48.984Z,25.63
2019-03-28T14:33:19.816Z,22.83
2019-03-28T14:35:48.722Z,23.80
2019-03-28T14:38:17.166Z,25.93
2019-03-28T14:40:46.306Z,26.27
2019-03-28T14:43:14.731Z,24.50
2019-03-28T14:45:43.190Z,24.80
2019-03-28T14:48:11.644Z,25.50
2019-03-28T14:50:40.956Z,25.67
2019-03-28T14:53:09.623Z,24.33
2019-03-28T14:55:38.187Z,29.30
2019-03-28T14:58:07.145Z,29.60
2019-03-28T15:00:41.208Z,25.10
2019-03-28T15:03:25.680Z,23.13
2019-03-28T15:05:46.007Z,24.23
2019-03-28T15:08:14.613Z,27.03
2019-03-28T15:10:43.273Z,27.10
2019-03-28T15:13:11.827Z,23.03
2019-03-28T15:15:40.270Z,23.90
2019-03-28T15:18:08.913Z,23.50
2019-03-28T15:20:37.619Z,24.90
2019-03-28T15:23:06.305Z,19.70
2019-03-28T15:25:36.542Z,20.90
2019-03-28T15:28:05.117Z,20.10
2019-03-28T15:30:33.835Z,22.00
2019-03-28T15:33:02.351Z,24.67
2019-03-28T15:35:30.804Z,26.10
2019-03-28T15:37:59.344Z,25.40
2019-03-28T15:40:27.784Z,24.97
2019-03-28T15:42:56.297Z,25.80
2019-03-28T15:45:24.772Z,27.43
2019-03-28T15:47:53.277Z,26.10
2019-03-28T15:50:21.757Z,27.20
2019-03-28T15:52:50.287Z,28.43
2019-03-28T15:55:18.764Z,26.97
2019-03-28T15:57:47.214Z,28.07
2019-03-28T16:00:16.225Z,27.57
2019-03-28T16:02:44.676Z,28.97
2019-03-28T16:05:13.340Z,27.37
2019-03-28T16:07:41.818Z,28.93
2019-03-28T16:10:14.382Z,29.27
2019-03-28T16:12:41.214Z,32.10
2019-03-28T16:15:10.028Z,33.27
2019-03-28T16:17:38.545Z,30.70
2019-03-28T16:20:07.332Z,29.80
2019-03-28T16:22:35.792Z,30.63
2019-03-28T16:25:05.875Z,30.97
2019-03-28T16:27:34.435Z,32.67
2019-03-28T16:30:03.812Z,31.43
2019-03-28T16:32:32.312Z,24.30
2019-03-28T16:35:00.761Z,26.30
2019-03-28T16:37:29.236Z,23.43
2019-03-28T16:39:57.829Z,26.37
2019-03-28T16:42:26.460Z,28.97
2019-03-28T16:44:54.959Z,24.87
2019-03-28T16:47:29.448Z,25.00
2019-03-28T16:49:57.893Z,25.63
2019-03-28T16:52:26.509Z,25.33
2019-03-28T16:54:54.962Z,25.17
2019-03-28T16:57:24.416Z,23.17
2019-03-28T16:59:56.550Z,24.67
2019-03-28T17:02:25.031Z,22.70
2019-03-28T17:04:53.549Z,23.37
2019-03-28T17:07:22.352Z,26.30
2019-03-28T17:09:51.352Z,26.90
2019-03-28T17:12:19.825Z,27.50
2019-03-28T17:14:48.329Z,28.57
2019-03-28T17:17:16.774Z,28.10
2019-03-28T17:19:45.270Z,26.00
2019-03-28T17:22:13.712Z,28.20
2019-03-28T17:25:01.530Z,28.07
2019-03-28T17:27:30.054Z,28.10
2019-03-28T17:29:58.541Z,29.40
2019-03-28T17:32:26.987Z,29.70
2019-03-28T17:34:55.467Z,35.60
2019-03-28T17:37:23.928Z,28.97
2019-03-28T17:39:52.376Z,29.20
2019-03-28T17:42:20.926Z,27.93
2019-03-28T17:44:49.375Z,30.13
2019-03-28T17:47:18.811Z,28.90
2019-03-28T17:49:47.262Z,29.80
2019-03-28T17:52:16.699Z,30.07
2019-03-28T17:54:45.149Z,27.17
2019-03-28T17:57:13.791Z,28.53
2019-03-28T17:59:45.240Z,27.77
2019-03-28T18:02:12.546Z,29.07
2019-03-28T18:04:47.813Z,31.10
2019-03-28T18:07:12.274Z,28.60
2019-03-28T18:09:40.860Z,30.90
2019-03-28T18:12:28.639Z,30.80
2019-03-28T18:14:57.095Z,28.50
2019-03-28T18:17:25.794Z,29.77
2019-03-28T18:19:54.595Z,30.27
2019-03-28T18:22:23.071Z,49.70
2019-03-28T18:24:54.445Z,28.43
2019-03-28T18:27:22.899Z,27.90
2019-03-28T18:29:51.352Z,28.90
2019-03-28T18:32:19.972Z,40.03
2019-03-28T18:34:54.477Z,30.60
2019-03-28T18:37:19.216Z,26.30
2019-03-28T18:39:47.766Z,25.73
2019-03-28T18:42:19.377Z,26.03
2019-03-28T18:44:47.851Z,26.70
2019-03-28T18:47:16.480Z,24.63
2019-03-28T18:49:45.096Z,24.30
2019-03-28T18:52:13.575Z,24.13
2019-03-28T18:54:42.092Z,25.30
2019-03-28T18:57:10.624Z,24.27
2019-03-28T18:59:39.139Z,24.30
2019-03-28T19:02:07.615Z,24.10
2019-03-28T19:04:36.127Z,24.57
2019-03-28T19:07:04.629Z,24.63
2019-03-28T19:09:33.201Z,25.20
2019-03-28T19:12:21.113Z,24.97
2019-03-28T19:14:50.313Z,25.30
2019-03-28T19:17:19.539Z,25.40
2019-03-28T19:19:48.602Z,24.37
2019-03-28T19:22:17.052Z,24.37
2019-03-28T19:24:45.528Z,22.70
2019-03-28T19:27:13.976Z,24.73
2019-03-28T19:29:42.424Z,24.53
2019-03-28T19:32:10.954Z,24.70
2019-03-28T19:34:39.409Z,24.30
2019-03-28T19:37:08.303Z,23.27
2019-03-28T19:39:38.913Z,24.67
2019-03-28T19:42:26.784Z,24.63
2019-03-28T19:44:55.570Z,25.50
2019-03-28T19:47:24.041Z,24.90
2019-03-28T19:49:52.491Z,25.83
2019-03-28T19:52:20.973Z,24.63
2019-03-28T19:54:49.440Z,24.00
2019-03-28T19:57:18.026Z,24.30
2019-03-28T19:59:46.559Z,24.83
2019-03-28T20:02:15.748Z,25.27
2019-03-28T20:04:44.450Z,24.30
2019-03-28T20:07:21.375Z,23.40
2019-03-28T20:09:44.791Z,25.50
2019-03-28T20:12:14.660Z,24.87
2019-03-28T20:14:48.977Z,24.50
2019-03-28T20:17:17.851Z,24.97
2019-03-28T20:20:06.313Z,24.83
2019-03-28T20:22:34.763Z,24.67
2019-03-28T20:25:04.046Z,25.53
2019-03-28T20:27:32.507Z,26.00
2019-03-28T20:30:02.572Z,28.13
2019-03-28T20:32:31.343Z,27.87
2019-03-28T20:34:59.772Z,28.53
2019-03-28T20:37:28.240Z,27.70
2019-03-28T20:39:57.260Z,28.37
2019-03-28T20:42:26.606Z,28.23
2019-03-28T20:44:55.059Z,29.00
2019-03-28T20:47:24.279Z,28.27
2019-03-28T20:49:53.383Z,29.37
2019-03-28T20:52:21.848Z,28.10
2019-03-28T20:54:50.324Z,30.17
2019-03-28T20:57:18.784Z,27.67
2019-03-28T20:59:47.244Z,29.00
2019-03-28T21:02:15.920Z,27.73
2019-03-28T21:04:52.554Z,28.77
2019-03-28T21:07:27.146Z,27.93
2019-03-28T21:09:55.746Z,28.77
2019-03-28T21:12:24.208Z,29.07
2019-03-28T21:14:53.782Z,29.37
2019-03-28T21:17:22.561Z,29.07
2019-03-28T21:19:51.026Z,29.90
2019-03-28T21:22:20.830Z,30.00
2019-03-28T21:24:49.428Z,28.73
2019-03-28T21:27:20.597Z,31.10
2019-03-28T21:29:49.331Z,30.87
2019-03-28T21:32:18.960Z,29.87
2019-03-28T21:34:47.635Z,30.20
2019-03-28T21:37:16.087Z,32.07
2019-03-28T21:39:44.620Z,33.13
2019-03-28T21:42:13.187Z,32.67
2019-03-28T21:44:41.649Z,32.33
2019-03-28T21:47:10.396Z,33.53
2019-03-28T21:49:39.138Z,34.93
2019-03-28T21:52:07.831Z,31.40
2019-03-28T21:54:36.384Z,32.07
2019-03-28T21:57:04.896Z,31.37
2019-03-28T21:59:33.521Z,31.30
2019-03-28T22:02:02.099Z,29.93
2019-03-28T22:04:30.603Z,29.33
2019-03-28T22:06:59.121Z,28.33
2019-03-28T22:09:28.572Z,29.63
2019-03-28T22:12:00.462Z,30.30
2019-03-28T22:14:28.064Z,29.37
2019-03-28T22:16:56.891Z,28.80
2019-03-28T22:19:26.069Z,28.90
2019-03-28T22:21:55.052Z,29.00
2019-03-28T22:24:23.555Z,28.83
2019-03-28T22:26:52.033Z,28.33
2019-03-28T22:29:20.889Z,30.67
2019-03-28T22:31:49.588Z,29.90
2019-03-28T22:34:18.064Z,30.67
2019-03-28T22:36:56.494Z,29.80
2019-03-28T22:39:16.717Z,30.63
2019-03-28T22:41:45.228Z,30.13
2019-03-28T22:44:14.372Z,31.40
2019-03-28T22:46:42.924Z,31.50
2019-03-28T22:49:11.395Z,30.20
2019-03-28T22:51:39.869Z,30.63
2019-03-28T22:54:08.375Z,29.23
2019-03-28T22:56:36.916Z,29.87
2019-03-28T22:59:05.518Z,28.80
2019-03-28T23:01:34.221Z,29.07
2019-03-28T23:04:02.664Z,30.57
2019-03-28T23:06:31.231Z,27.13
2019-03-28T23:08:59.698Z,30.10
2019-03-28T23:11:28.147Z,29.67
2019-03-28T23:13:56.597Z,32.40
2019-03-28T23:16:25.050Z,34.43
2019-03-28T23:18:53.523Z,29.80
2019-03-28T23:21:21.979Z,31.20
2019-03-28T23:23:51.159Z,32.57
2019-03-28T23:26:39.616Z,36.27
2019-03-28T23:29:08.056Z,35.97
2019-03-28T23:31:36.491Z,32.37
2019-03-28T23:34:24.279Z,33.10
2019-03-28T23:36:59.496Z,32.63
2019-03-28T23:39:27.957Z,34.80
2019-03-28T23:41:56.406Z,34.70
2019-03-28T23:44:24.847Z,32.27
2019-03-28T23:46:53.288Z,34.17
2019-03-28T23:49:21.748Z,29.67
2019-03-28T23:51:50.286Z,29.37
2019-03-28T23:54:38.661Z,28.53
2019-03-28T23:57:07.118Z,28.50
2019-03-28T23:59:35.595Z,28.37
